createdAt,value
2023-10-28T00:04:24.786Z,0.40
2023-10-28T00:09:26.995Z,0.10
2023-10-28T00:14:30.724Z,0.30
2023-10-28T00:19:33.488Z,0.30
2023-10-28T00:24:35.649Z,0.30
2023-10-28T00:29:40.121Z,0.30
2023-10-28T00:34:42.504Z,0.30
2023-10-28T00:39:45.079Z,0.30
2023-10-28T00:44:48.681Z,0.50
2023-10-28T00:49:51.098Z,0.20
2023-10-28T00:54:55.601Z,0.30
2023-10-28T01:00:00.333Z,0.20
2023-10-28T01:05:02.295Z,0.33
2023-10-28T01:10:04.768Z,0.30
2023-10-28T01:15:09.380Z,0.40
2023-10-28T01:20:12.031Z,0.50
2023-10-28T01:25:15.853Z,0.50
2023-10-28T01:30:18.069Z,0.20
2023-10-28T01:35:20.540Z,0.50
2023-10-28T01:40:27.049Z,0.10
2023-10-28T01:45:29.179Z,0.30
2023-10-28T01:50:31.190Z,0.30
2023-10-28T01:55:34.956Z,0.30
2023-10-28T02:00:37.033Z,0.10
2023-10-28T02:05:39.196Z,0.20
2023-10-28T02:10:42.836Z,0.20
2023-10-28T02:15:46.307Z,0.30
2023-10-28T02:20:48.527Z,0.20
2023-10-28T02:25:51.990Z,0.30
2023-10-28T02:30:53.726Z,0.20
2023-10-28T02:35:55.538Z,0.17
2023-10-28T02:40:59.192Z,0.30
2023-10-28T02:46:00.958Z,0.20
2023-10-28T02:51:05.954Z,0.33
2023-10-28T02:56:09.979Z,0.20
2023-10-28T03:01:14.290Z,0.60
2023-10-28T03:06:16.449Z,0.20
2023-10-28T03:11:19.693Z,0.30
2023-10-28T03:16:21.586Z,0.20
2023-10-28T03:21:23.650Z,0.20
2023-10-28T03:26:27.041Z,0.27
2023-10-28T03:31:29.109Z,0.20
2023-10-28T03:36:31.240Z,0.43
2023-10-28T03:41:35.032Z,0.20
2023-10-28T03:46:37.579Z,0.40
2023-10-28T03:51:39.913Z,0.40
2023-10-28T03:56:43.183Z,0.43
2023-10-28T04:01:45.633Z,0.30
2023-10-28T04:06:48.228Z,0.30
2023-10-28T04:11:51.517Z,0.20
2023-10-28T04:16:53.305Z,0.20
2023-10-28T04:21:57.198Z,0.20
2023-10-28T04:27:00.855Z,0.20
2023-10-28T04:32:03.216Z,0.40
2023-10-28T04:37:06.600Z,0.40
2023-10-28T04:42:10.058Z,0.40
2023-10-28T04:47:12.239Z,0.53
2023-10-28T04:52:14.007Z,0.30
2023-10-28T04:57:17.141Z,0.40
2023-10-28T05:02:19.098Z,0.37
2023-10-28T05:07:21.236Z,0.70
2023-10-28T05:12:24.762Z,0.70
2023-10-28T05:17:26.636Z,0.60
2023-10-28T05:22:28.503Z,0.50
2023-10-28T05:27:31.945Z,0.50
2023-10-28T05:32:34.164Z,0.70
2023-10-28T05:37:36.154Z,0.90
2023-10-28T05:42:40.143Z,0.90
2023-10-28T05:47:42.564Z,0.70
2023-10-28T05:52:44.738Z,0.73
2023-10-28T05:57:47.953Z,0.60
2023-10-28T06:02:50.363Z,0.43
2023-10-28T06:07:52.067Z,0.70
2023-10-28T06:12:55.748Z,0.90
2023-10-28T06:17:58.473Z,1.23
2023-10-28T06:23:00.888Z,1.90
2023-10-28T06:28:07.050Z,1.50
2023-10-28T06:33:12.699Z,1.40
2023-10-28T06:38:14.897Z,1.23
2023-10-28T06:43:19.076Z,1.30
2023-10-28T06:48:21.212Z,1.80
2023-10-28T06:53:23.558Z,1.23
2023-10-28T06:58:27.044Z,1.40
2023-10-28T07:03:29.385Z,1.60
2023-10-28T07:08:31.497Z,1.30
2023-10-28T07:13:35.074Z,1.33
2023-10-28T07:18:37.238Z,1.30
2023-10-28T07:23:39.710Z,1.80
2023-10-28T07:28:43.121Z,2.07
2023-10-28T07:33:45.746Z,1.90
2023-10-28T07:38:47.929Z,1.67
2023-10-28T07:43:51.376Z,1.40
2023-10-28T07:48:54.716Z,1.20
2023-10-28T07:53:56.901Z,0.83
2023-10-28T07:59:01.392Z,0.60
2023-10-28T08:04:07.077Z,0.40
2023-10-28T08:09:10.380Z,0.30
2023-10-28T08:14:15.099Z,0.30
2023-10-28T08:19:17.201Z,0.30
2023-10-28T08:24:18.870Z,0.50
2023-10-28T08:29:22.614Z,0.20
2023-10-28T08:34:26.370Z,0.40
2023-10-28T08:39:31.126Z,0.20
2023-10-28T08:44:36.287Z,0.50
2023-10-28T08:49:40.113Z,0.40
2023-10-28T08:54:44.236Z,0.53
2023-10-28T08:59:48.335Z,1.70
2023-10-28T09:04:50.455Z,0.40
2023-10-28T09:10:00.472Z,0.40
2023-10-28T09:15:05.389Z,0.30
2023-10-28T09:20:10.932Z,0.43
2023-10-28T09:25:15.798Z,0.40
2023-10-28T09:30:23.205Z,0.30
2023-10-28T09:35:28.689Z,0.20
2023-10-28T09:40:30.986Z,0.20
2023-10-28T09:45:35.032Z,0.17
2023-10-28T09:50:45.548Z,0.30
2023-10-28T09:55:50.527Z,0.22
2023-10-28T10:00:59.320Z,0.20
2023-10-28T10:06:01.579Z,0.30
2023-10-28T10:11:03.425Z,0.20
2023-10-28T10:16:19.390Z,0.22
2023-10-28T10:21:21.570Z,0.30
2023-10-28T10:26:24.881Z,0.32
2023-10-28T10:31:32.449Z,0.17
2023-10-28T10:36:38.199Z,0.28
2023-10-28T10:41:41.736Z,0.38
2023-10-28T10:46:45.215Z,0.20
2023-10-28T10:51:47.487Z,0.30
2023-10-28T10:56:49.885Z,0.38
2023-10-28T11:01:53.465Z,0.22
2023-10-28T11:06:55.991Z,0.30
2023-10-28T11:11:57.931Z,0.38
2023-10-28T11:17:02.079Z,0.40
2023-10-28T11:22:04.795Z,0.30
2023-10-28T11:27:07.741Z,0.35
2023-10-28T11:32:12.364Z,0.38
2023-10-28T11:37:15.247Z,0.30
2023-10-28T11:42:18.422Z,0.30
2023-10-28T11:47:22.101Z,0.20
2023-10-28T11:52:23.888Z,0.20
2023-10-28T11:57:26.145Z,0.25
2023-10-28T12:02:29.635Z,0.10
2023-10-28T12:07:31.998Z,0.20
2023-10-28T12:12:34.370Z,0.20
2023-10-28T12:17:37.657Z,0.20
2023-10-28T12:22:39.917Z,0.50
2023-10-28T12:27:42.085Z,0.40
2023-10-28T12:32:48.351Z,0.45
2023-10-28T12:37:50.802Z,0.38
2023-10-28T12:42:52.750Z,0.40
2023-10-28T12:47:58.017Z,0.30
2023-10-28T12:53:00.072Z,2.00
2023-10-28T12:58:02.106Z,0.38
2023-10-28T13:03:06.123Z,0.30
2023-10-28T13:08:08.977Z,0.30
2023-10-28T13:13:11.047Z,0.38
2023-10-28T13:18:14.276Z,0.50
2023-10-28T13:23:16.104Z,0.43
2023-10-28T13:28:18.360Z,0.50
2023-10-28T13:33:22.403Z,0.30
2023-10-28T13:38:24.302Z,0.30
2023-10-28T13:43:26.849Z,0.20
2023-10-28T13:48:30.088Z,0.52
2023-10-28T13:53:32.239Z,0.40
2023-10-28T13:58:35.136Z,0.40
2023-10-28T14:03:38.630Z,0.50
2023-10-28T14:08:40.929Z,0.40
2023-10-28T14:13:42.901Z,0.40
2023-10-28T14:18:50.587Z,0.50
2023-10-28T14:23:53.296Z,0.50
2023-10-28T14:28:55.442Z,0.30
2023-10-28T14:33:59.039Z,0.40
2023-10-28T14:39:00.902Z,0.40
2023-10-28T14:44:03.265Z,0.40
2023-10-28T14:49:06.939Z,0.30
2023-10-28T14:54:09.109Z,0.60
2023-10-28T14:59:11.426Z,0.60
2023-10-28T15:04:15.394Z,0.30
2023-10-28T15:09:17.718Z,0.40
2023-10-28T15:14:20.643Z,0.40
2023-10-28T15:19:24.174Z,0.50
2023-10-28T15:24:26.453Z,1.07
2023-10-28T15:29:28.608Z,1.20
2023-10-28T15:34:33.121Z,0.90
2023-10-28T15:39:35.820Z,2.43
2023-10-28T15:44:38.515Z,1.53
2023-10-28T15:49:41.962Z,1.20
2023-10-28T15:54:44.154Z,3.63
2023-10-28T15:59:47.104Z,2.03
2023-10-28T16:04:52.356Z,1.20
2023-10-28T16:09:54.883Z,1.87
2023-10-28T16:14:57.043Z,1.10
2023-10-28T16:20:00.552Z,1.50
2023-10-28T16:25:04.227Z,1.50
2023-10-28T16:30:09.186Z,2.30
2023-10-28T16:35:13.725Z,1.43
2023-10-28T16:40:17.146Z,1.30
2023-10-28T16:45:20.085Z,1.53
2023-10-28T16:50:25.124Z,1.10
2023-10-28T16:55:28.681Z,1.40
2023-10-28T17:00:33.189Z,1.30
2023-10-28T17:05:38.608Z,2.10
2023-10-28T17:10:44.032Z,1.40
2023-10-28T17:15:49.751Z,1.33
2023-10-28T17:20:55.442Z,1.90
2023-10-28T17:25:59.080Z,1.77
2023-10-28T17:31:05.433Z,1.70
2023-10-28T17:36:13.013Z,1.60
2023-10-28T17:41:18.300Z,1.20
2023-10-28T17:46:22.388Z,2.07
2023-10-28T17:51:30.669Z,1.20
2023-10-28T17:56:34.748Z,1.37
2023-10-28T18:01:38.677Z,2.47
2023-10-28T18:06:45.119Z,2.63
2023-10-28T18:11:49.090Z,3.03
2023-10-28T18:16:54.015Z,3.37
2023-10-28T18:21:59.580Z,3.67
2023-10-28T18:27:04.428Z,3.47
2023-10-28T18:32:12.039Z,2.90
2023-10-28T18:37:17.983Z,3.03
2023-10-28T18:42:22.689Z,3.27
2023-10-28T18:47:27.899Z,3.80
2023-10-28T18:52:35.296Z,4.40
2023-10-28T18:57:40.541Z,4.53
2023-10-28T19:02:46.328Z,4.73
2023-10-28T19:07:55.312Z,4.37
2023-10-28T19:12:59.713Z,4.00
2023-10-28T19:18:04.098Z,2.83
2023-10-28T19:23:11.668Z,3.00
2023-10-28T19:28:17.567Z,3.23
2023-10-28T19:33:22.265Z,2.40
2023-10-28T19:38:29.290Z,2.03
2023-10-28T19:43:33.453Z,1.87
2023-10-28T19:48:37.109Z,1.97
2023-10-28T19:53:41.993Z,2.20
2023-10-28T19:58:45.879Z,2.40
2023-10-28T20:03:51.458Z,1.53
2023-10-28T20:08:56.624Z,1.93
2023-10-28T20:14:00.576Z,1.83
2023-10-28T20:19:04.604Z,2.40
2023-10-28T20:24:12.373Z,2.13
2023-10-28T20:29:15.588Z,2.20
2023-10-28T20:34:18.697Z,2.20
2023-10-28T20:39:27.857Z,2.03
2023-10-28T20:44:34.421Z,2.10
2023-10-28T20:49:40.599Z,2.30
2023-10-28T20:54:45.982Z,2.13
2023-10-28T20:59:49.177Z,2.07
2023-10-28T21:04:51.137Z,3.27
2023-10-28T21:09:54.589Z,2.50
2023-10-28T21:14:56.462Z,2.47
2023-10-28T21:19:58.502Z,3.80
2023-10-28T21:25:01.652Z,3.40
2023-10-28T21:30:03.846Z,3.07
2023-10-28T21:35:07.156Z,3.03
2023-10-28T21:40:12.331Z,4.27
2023-10-28T21:45:14.112Z,3.80
2023-10-28T21:50:16.297Z,3.70
2023-10-28T21:55:20.035Z,5.83
2023-10-28T22:05:19.826Z,3.37
2023-10-28T22:10:23.265Z,2.10
2023-10-28T22:15:25.636Z,1.40
2023-10-28T22:20:29.730Z,1.20
2023-10-28T22:25:32.946Z,1.00
2023-10-28T22:30:34.921Z,1.00
2023-10-28T22:35:37.495Z,0.97
2023-10-28T22:40:41.702Z,1.20
2023-10-28T22:45:46.891Z,1.30
2023-10-28T22:50:48.982Z,0.40
2023-10-28T22:55:52.553Z,1.00
2023-10-28T23:00:54.877Z,0.50
2023-10-28T23:05:57.000Z,0.73
2023-10-28T23:11:00.865Z,0.60
2023-10-28T23:16:02.698Z,0.30
2023-10-28T23:21:05.308Z,0.20
2023-10-28T23:26:08.819Z,0.23
2023-10-28T23:31:10.938Z,0.40
2023-10-28T23:36:13.200Z,0.13
2023-10-28T23:41:17.372Z,0.20
2023-10-28T23:46:19.272Z,0.23
2023-10-28T23:51:21.185Z,0.40
2023-10-28T23:56:25.323Z,0.20
